createdAt,value
2022-10-06T00:00:01.078Z,7.36
2022-10-06T00:03:03.943Z,7.45
2022-10-06T00:06:08.174Z,7.23
2022-10-06T00:09:10.787Z,7.01
2022-10-06T00:12:13.746Z,7.18
2022-10-06T00:15:20.641Z,7.35
2022-10-06T00:18:23.472Z,7.36
2022-10-06T00:21:26.006Z,7.34
2022-10-06T00:24:28.885Z,7.43
2022-10-06T00:27:36.701Z,7.41
2022-10-06T00:30:39.637Z,7.15
2022-10-06T00:33:42.570Z,7.39
2022-10-06T00:36:45.816Z,7.14
2022-10-06T00:39:48.476Z,7.08
2022-10-06T00:42:55.919Z,7.22
2022-10-06T00:45:58.703Z,7.34
2022-10-06T00:49:11.931Z,7.48
2022-10-06T00:52:20.789Z,7.30
2022-10-06T00:55:24.017Z,7.17
2022-10-06T00:58:27.313Z,7.14
2022-10-06T01:01:32.153Z,7.18
2022-10-06T01:04:38.365Z,7.17
2022-10-06T01:07:41.570Z,7.23
2022-10-06T01:10:44.253Z,7.25
2022-10-06T01:13:47.197Z,7.21
2022-10-06T01:16:56.121Z,7.03
2022-10-06T01:20:04.702Z,6.95
2022-10-06T01:23:10.454Z,7.05
2022-10-06T01:26:14.714Z,7.05
2022-10-06T01:29:17.769Z,7.08
2022-10-06T01:32:22.481Z,6.89
2022-10-06T01:35:25.405Z,6.80
2022-10-06T01:38:28.676Z,6.70
2022-10-06T01:41:34.109Z,6.72
2022-10-06T01:44:37.881Z,6.72
2022-10-06T01:47:40.458Z,6.58
2022-10-06T01:50:47.187Z,6.65
2022-10-06T01:53:49.929Z,6.56
2022-10-06T01:56:53.279Z,6.43
2022-10-06T01:59:56.608Z,6.28
2022-10-06T02:02:59.568Z,6.44
2022-10-06T02:06:03.143Z,6.49
2022-10-06T02:09:05.931Z,6.42
2022-10-06T02:12:09.015Z,6.25
2022-10-06T02:15:14.930Z,6.22
2022-10-06T02:18:17.807Z,6.24
2022-10-06T02:21:22.613Z,6.20
2022-10-06T02:24:25.281Z,6.11
2022-10-06T02:27:28.502Z,6.14
2022-10-06T02:30:31.346Z,6.13
2022-10-06T02:33:36.204Z,6.05
2022-10-06T02:36:39.947Z,6.07
2022-10-06T02:39:43.030Z,6.11
2022-10-06T02:42:46.017Z,6.15
2022-10-06T02:46:04.281Z,6.18
2022-10-06T02:49:08.578Z,6.11
2022-10-06T02:52:15.552Z,6.06
2022-10-06T02:55:18.306Z,5.91
2022-10-06T02:58:21.222Z,5.86
2022-10-06T03:01:26.642Z,5.71
2022-10-06T03:04:30.417Z,5.44
2022-10-06T03:07:33.007Z,5.42
2022-10-06T03:10:36.014Z,5.53
2022-10-06T03:13:38.735Z,5.51
2022-10-06T03:16:43.561Z,5.49
2022-10-06T03:19:46.845Z,5.42
2022-10-06T03:22:52.948Z,5.33
2022-10-06T03:25:57.825Z,5.39
2022-10-06T03:29:01.998Z,5.36
2022-10-06T03:32:05.086Z,5.14
2022-10-06T03:35:08.945Z,5.29
2022-10-06T03:38:11.754Z,5.12
2022-10-06T03:41:23.377Z,5.33
2022-10-06T03:44:25.934Z,5.30
2022-10-06T03:47:31.880Z,5.26
2022-10-06T03:50:34.855Z,5.28
2022-10-06T03:53:38.586Z,5.35
2022-10-06T03:56:41.843Z,5.38
2022-10-06T03:59:45.024Z,5.39
2022-10-06T04:02:49.840Z,5.43
2022-10-06T04:05:57.267Z,5.37
2022-10-06T04:09:00.595Z,5.40
2022-10-06T04:12:04.142Z,5.52
2022-10-06T04:15:07.820Z,5.58
2022-10-06T04:18:11.562Z,5.57
2022-10-06T04:21:14.714Z,5.52
2022-10-06T04:24:18.620Z,5.42
2022-10-06T04:27:28.223Z,5.48
2022-10-06T04:30:31.805Z,5.46
2022-10-06T04:33:34.731Z,5.52
2022-10-06T04:36:41.013Z,5.38
2022-10-06T04:39:44.614Z,5.43
2022-10-06T04:42:49.377Z,5.33
2022-10-06T04:45:59.593Z,5.40
2022-10-06T04:49:03.924Z,5.34
2022-10-06T04:52:07.097Z,5.35
2022-10-06T04:55:11.306Z,5.34
2022-10-06T04:58:14.039Z,5.28
2022-10-06T05:01:18.384Z,4.94
2022-10-06T05:04:21.625Z,4.75
2022-10-06T05:07:25.103Z,4.88
2022-10-06T05:10:28.562Z,5.20
2022-10-06T05:13:32.198Z,5.18
2022-10-06T05:16:39.548Z,5.33
2022-10-06T05:19:42.907Z,5.52
2022-10-06T05:22:45.812Z,5.37
2022-10-06T05:25:53.943Z,5.28
2022-10-06T05:28:57.264Z,5.99
2022-10-06T05:32:00.574Z,5.99
2022-10-06T05:35:06.216Z,5.84
2022-10-06T05:38:17.707Z,5.78
2022-10-06T05:41:31.167Z,6.20
2022-10-06T05:44:35.093Z,5.92
2022-10-06T05:47:39.006Z,5.59
2022-10-06T05:50:42.201Z,6.14
2022-10-06T05:53:45.740Z,6.73
2022-10-06T05:56:49.193Z,6.80
2022-10-06T05:59:52.066Z,6.82
2022-10-06T06:02:55.241Z,7.03
2022-10-06T06:05:58.326Z,7.36
2022-10-06T06:09:02.613Z,7.73
2022-10-06T06:12:06.379Z,7.65
2022-10-06T06:15:29.681Z,7.85
2022-10-06T06:18:37.497Z,8.06
2022-10-06T06:21:41.195Z,8.15
2022-10-06T06:24:45.182Z,8.26
2022-10-06T06:27:48.234Z,8.11
2022-10-06T06:31:02.975Z,7.96
2022-10-06T06:34:07.089Z,8.19
2022-10-06T06:37:15.016Z,8.35
2022-10-06T06:40:18.330Z,8.41
2022-10-06T06:43:21.806Z,8.44
2022-10-06T06:46:32.087Z,8.57
2022-10-06T06:49:35.441Z,8.66
2022-10-06T06:52:38.677Z,8.85
2022-10-06T08:20:55.705Z,13.98
2022-10-06T08:23:59.437Z,14.26
2022-10-06T08:27:02.660Z,14.50
2022-10-06T08:30:07.997Z,14.86
2022-10-06T08:33:10.788Z,14.63
2022-10-06T08:36:16.761Z,14.84
2022-10-06T08:39:19.606Z,15.05
2022-10-06T08:42:41.431Z,15.03
2022-10-06T08:45:46.550Z,15.03
2022-10-06T08:48:49.677Z,15.04
2022-10-06T08:52:10.226Z,15.04
2022-10-06T08:55:41.820Z,14.56
2022-10-06T08:59:04.412Z,14.50
2022-10-06T09:02:28.184Z,14.60
2022-10-06T09:05:32.165Z,14.64
2022-10-06T09:08:51.003Z,14.43
2022-10-06T09:12:20.120Z,14.58
2022-10-06T09:15:33.818Z,14.57
2022-10-06T09:18:56.524Z,14.81
2022-10-06T09:22:04.863Z,14.94
2022-10-06T09:25:20.190Z,14.87
2022-10-06T09:28:24.277Z,15.02
2022-10-06T09:31:42.351Z,15.20
2022-10-06T09:34:59.655Z,15.56
2022-10-06T09:38:08.769Z,15.86
2022-10-06T09:41:19.448Z,16.33
2022-10-06T09:44:27.902Z,17.20
2022-10-06T09:47:36.739Z,16.94
2022-10-06T09:50:40.711Z,17.34
2022-10-06T09:54:02.843Z,17.73
2022-10-06T09:57:18.841Z,18.35
2022-10-06T10:00:26.946Z,18.84
2022-10-06T10:03:51.516Z,18.55
2022-10-06T10:07:26.698Z,18.83
2022-10-06T10:10:30.134Z,18.99
2022-10-06T10:13:43.264Z,18.57
2022-10-06T10:16:52.341Z,18.39
2022-10-06T11:33:59.165Z,18.36
2022-10-06T11:37:31.824Z,18.33
2022-10-06T11:40:41.388Z,18.47
2022-10-06T11:44:00.604Z,18.96
2022-10-06T11:47:25.057Z,19.25
2022-10-06T11:50:40.382Z,18.93
2022-10-06T11:53:46.118Z,19.46
2022-10-06T11:56:49.223Z,19.41
2022-10-06T12:00:04.121Z,20.03
2022-10-06T12:03:28.396Z,20.14
2022-10-06T12:06:53.101Z,20.01
2022-10-06T12:10:27.677Z,20.21
2022-10-06T12:17:37.896Z,20.01
2022-10-06T12:20:53.733Z,20.16
2022-10-06T12:24:22.445Z,19.88
2022-10-06T12:27:31.244Z,20.09
2022-10-06T12:30:45.979Z,20.10
2022-10-06T12:33:50.568Z,20.29
2022-10-06T12:37:22.172Z,20.14
2022-10-06T12:40:51.977Z,19.89
2022-10-06T12:43:57.809Z,19.70
2022-10-06T12:47:05.514Z,19.76
2022-10-06T12:50:14.476Z,19.60
2022-10-06T12:53:25.590Z,20.00
2022-10-06T12:56:34.505Z,19.96
2022-10-06T12:59:40.091Z,20.13
2022-10-06T13:02:44.442Z,20.14
2022-10-06T13:05:57.498Z,20.32
2022-10-06T13:09:14.321Z,20.27
2022-10-06T13:12:30.307Z,20.48
2022-10-06T13:15:35.766Z,20.49
2022-10-06T13:18:38.857Z,20.53
2022-10-06T13:21:41.668Z,20.43
2022-10-06T13:24:45.248Z,20.51
2022-10-06T13:27:52.257Z,20.36
2022-10-06T13:31:33.490Z,20.15
2022-10-06T16:58:06.028Z,15.39
2022-10-06T17:01:10.743Z,15.39
2022-10-06T17:04:14.850Z,15.30
2022-10-06T17:07:17.927Z,15.20
2022-10-06T17:10:21.525Z,15.11
2022-10-06T17:13:24.693Z,15.04
2022-10-06T17:16:30.671Z,14.98
2022-10-06T17:19:33.721Z,14.87
2022-10-06T17:22:36.544Z,14.81
2022-10-06T17:25:40.755Z,14.77
2022-10-06T17:28:49.748Z,14.70
2022-10-06T17:31:58.984Z,14.65
2022-10-06T17:35:02.049Z,14.58
2022-10-06T17:38:09.528Z,14.56
2022-10-06T17:41:21.539Z,14.54
2022-10-06T17:44:27.296Z,14.54
2022-10-06T17:47:29.955Z,14.48
2022-10-06T17:50:33.611Z,14.30
2022-10-06T17:53:39.439Z,14.27
2022-10-06T17:56:44.684Z,14.22
2022-10-06T17:59:48.086Z,14.17
2022-10-06T18:02:57.033Z,14.12
2022-10-06T18:06:00.563Z,14.05
2022-10-06T18:09:05.698Z,13.97
2022-10-06T18:12:10.467Z,13.97
2022-10-06T18:15:15.053Z,13.88
2022-10-06T18:18:18.249Z,13.83
2022-10-06T18:21:24.361Z,13.69
2022-10-06T18:24:29.433Z,13.90
2022-10-06T18:27:33.430Z,13.72
2022-10-06T18:30:36.407Z,13.61
2022-10-06T18:36:10.397Z,13.52
2022-10-06T18:37:02.154Z,13.45
2022-10-06T18:40:08.664Z,13.42
2022-10-06T18:43:11.703Z,13.35
2022-10-06T18:46:34.660Z,13.29
2022-10-06T18:49:37.570Z,13.27
2022-10-06T18:52:42.346Z,13.27
2022-10-06T18:55:46.967Z,13.23
2022-10-06T18:58:50.069Z,13.15
2022-10-06T19:01:55.084Z,13.11
2022-10-06T19:04:57.957Z,13.07
2022-10-06T19:08:01.768Z,13.09
2022-10-06T19:11:25.071Z,13.00
2022-10-06T19:14:31.506Z,12.98
2022-10-06T19:17:34.634Z,12.93
2022-10-06T19:20:37.542Z,12.95
2022-10-06T19:23:40.981Z,12.91
2022-10-06T19:26:46.783Z,12.80
2022-10-06T19:29:53.083Z,12.88
2022-10-06T19:32:55.994Z,12.83
2022-10-06T19:36:00.493Z,12.76
2022-10-06T19:39:06.428Z,12.77
2022-10-06T19:42:32.903Z,12.50
2022-10-06T19:45:36.024Z,12.51
2022-10-06T19:48:38.887Z,12.51
2022-10-06T19:51:41.978Z,12.46
2022-10-06T19:54:44.694Z,12.37
2022-10-06T19:57:47.623Z,12.30
2022-10-06T20:00:50.299Z,12.24
2022-10-06T20:03:53.988Z,12.22
2022-10-06T20:07:01.778Z,12.21
2022-10-06T20:10:04.945Z,12.14
2022-10-06T20:13:07.502Z,11.96
2022-10-06T20:16:14.611Z,11.97
2022-10-06T20:19:18.467Z,12.02
2022-10-06T20:22:21.350Z,11.86
2022-10-06T20:25:23.946Z,11.87
2022-10-06T20:28:28.634Z,11.95
2022-10-06T20:31:36.900Z,11.95
2022-10-06T20:34:40.786Z,11.93
2022-10-06T20:37:43.696Z,11.89
2022-10-06T20:40:49.238Z,11.78
2022-10-06T20:43:54.011Z,11.71
2022-10-06T20:46:56.862Z,11.72
2022-10-06T20:49:59.462Z,11.61
2022-10-06T20:53:02.400Z,11.57
2022-10-06T20:56:06.320Z,11.53
2022-10-06T20:59:12.385Z,11.30
2022-10-06T21:02:15.059Z,11.43
2022-10-06T21:05:18.027Z,11.28
2022-10-06T21:08:20.688Z,11.38
2022-10-06T21:11:25.292Z,11.21
2022-10-06T21:14:30.153Z,11.22
2022-10-06T21:17:33.036Z,11.24
2022-10-06T21:20:40.766Z,11.20
2022-10-06T21:23:50.076Z,11.19
2022-10-06T21:26:52.865Z,11.15
2022-10-06T21:29:55.936Z,11.07
2022-10-06T21:32:58.588Z,11.10
2022-10-06T21:36:02.720Z,11.05
2022-10-06T21:39:06.205Z,11.07
2022-10-06T21:42:09.237Z,11.01
2022-10-06T21:45:11.948Z,10.98
2022-10-06T21:48:14.984Z,11.02
2022-10-06T21:51:17.913Z,11.10
2022-10-06T21:54:22.301Z,11.09
2022-10-06T21:57:26.424Z,11.00
2022-10-06T22:00:30.324Z,11.01
2022-10-06T22:03:37.956Z,10.94
2022-10-06T22:06:41.023Z,10.98
2022-10-06T22:09:43.856Z,10.88
2022-10-06T22:12:46.409Z,10.92
2022-10-06T22:15:49.272Z,10.94
2022-10-06T22:18:52.139Z,10.92
2022-10-06T22:21:55.041Z,10.90
2022-10-06T22:24:57.672Z,10.89
2022-10-06T22:28:00.525Z,10.78
2022-10-06T22:31:10.214Z,10.77
2022-10-06T22:34:15.799Z,10.83
2022-10-06T22:37:18.442Z,10.82
2022-10-06T22:40:21.325Z,10.83
2022-10-06T22:43:23.882Z,10.75
2022-10-06T22:46:29.843Z,10.83
2022-10-06T22:49:32.481Z,10.88
2022-10-06T22:52:35.339Z,10.84
2022-10-06T22:55:37.838Z,10.88
2022-10-06T22:58:42.688Z,10.84
2022-10-06T23:01:45.296Z,10.73
2022-10-06T23:04:48.296Z,10.65
2022-10-06T23:07:51.505Z,10.51
2022-10-06T23:10:54.372Z,10.59
2022-10-06T23:13:57.296Z,10.52
2022-10-06T23:17:00.205Z,10.61
2022-10-06T23:20:04.425Z,10.61
2022-10-06T23:23:07.436Z,10.58
2022-10-06T23:26:12.579Z,10.55
2022-10-06T23:29:18.695Z,10.56
2022-10-06T23:32:21.558Z,10.38
2022-10-06T23:35:24.472Z,10.37
2022-10-06T23:38:27.488Z,10.29
2022-10-06T23:41:30.360Z,10.31
2022-10-06T23:44:32.909Z,10.28
2022-10-06T23:47:35.863Z,10.27
2022-10-06T23:50:38.922Z,10.19
2022-10-06T23:53:42.962Z,10.18
2022-10-06T23:56:45.660Z,10.04
2022-10-06T23:59:48.621Z,10.10
